sensor_id;sensor_type;location;lat;lon;timestamp;P1;durP1;ratioP1;P2;durP2;ratioP2
52858;SDS011;38721;53.098;6.596;2023-05-07T00:01:52;25.70;;;20.88;;
52858;SDS011;38721;53.098;6.596;2023-05-07T00:04:18;25.50;;;19.85;;
52858;SDS011;38721;53.098;6.596;2023-05-07T00:06:44;27.45;;;19.30;;
52858;SDS011;38721;53.098;6.596;2023-05-07T00:09:09;26.55;;;19.67;;
52858;SDS011;38721;53.098;6.596;2023-05-07T00:11:41;29.80;;;20.90;;
52858;SDS011;38721;53.098;6.596;2023-05-07T00:14:06;29.08;;;20.77;;
52858;SDS011;38721;53.098;6.596;2023-05-07T00:16:32;28.17;;;20.85;;
52858;SDS011;38721;53.098;6.596;2023-05-07T00:18:58;28.70;;;21.33;;
52858;SDS011;38721;53.098;6.596;2023-05-07T00:21:23;26.40;;;21.27;;
52858;SDS011;38721;53.098;6.596;2023-05-07T00:23:52;27.08;;;21.30;;
52858;SDS011;38721;53.098;6.596;2023-05-07T00:26:19;28.95;;;22.02;;
52858;SDS011;38721;53.098;6.596;2023-05-07T00:28:44;27.15;;;21.15;;
52858;SDS011;38721;53.098;6.596;2023-05-07T00:31:10;31.35;;;22.27;;
52858;SDS011;38721;53.098;6.596;2023-05-07T00:33:37;29.85;;;21.52;;
52858;SDS011;38721;53.098;6.596;2023-05-07T00:36:03;33.67;;;23.92;;
52858;SDS011;38721;53.098;6.596;2023-05-07T00:38:32;32.47;;;23.08;;
52858;SDS011;38721;53.098;6.596;2023-05-07T00:40:58;28.92;;;21.85;;
52858;SDS011;38721;53.098;6.596;2023-05-07T00:43:24;30.73;;;21.80;;
52858;SDS011;38721;53.098;6.596;2023-05-07T00:45:49;28.98;;;21.80;;
52858;SDS011;38721;53.098;6.596;2023-05-07T00:48:15;28.45;;;22.83;;
52858;SDS011;38721;53.098;6.596;2023-05-07T00:50:41;35.75;;;22.73;;
52858;SDS011;38721;53.098;6.596;2023-05-07T00:53:10;25.60;;;21.33;;
52858;SDS011;38721;53.098;6.596;2023-05-07T00:55:37;27.23;;;22.25;;
52858;SDS011;38721;53.098;6.596;2023-05-07T00:58:03;31.33;;;21.85;;
52858;SDS011;38721;53.098;6.596;2023-05-07T01:00:29;33.40;;;23.30;;
52858;SDS011;38721;53.098;6.596;2023-05-07T01:02:55;29.52;;;23.10;;
52858;SDS011;38721;53.098;6.596;2023-05-07T01:05:21;29.77;;;23.02;;
52858;SDS011;38721;53.098;6.596;2023-05-07T01:07:52;29.67;;;23.15;;
52858;SDS011;38721;53.098;6.596;2023-05-07T01:10:20;32.35;;;23.98;;
52858;SDS011;38721;53.098;6.596;2023-05-07T01:12:46;31.13;;;23.33;;
52858;SDS011;38721;53.098;6.596;2023-05-07T01:15:12;32.20;;;23.35;;
52858;SDS011;38721;53.098;6.596;2023-05-07T01:17:39;29.52;;;22.77;;
52858;SDS011;38721;53.098;6.596;2023-05-07T01:20:07;30.30;;;24.30;;
52858;SDS011;38721;53.098;6.596;2023-05-07T01:22:35;30.35;;;23.10;;
52858;SDS011;38721;53.098;6.596;2023-05-07T01:25:06;28.73;;;23.73;;
52858;SDS011;38721;53.098;6.596;2023-05-07T01:27:33;32.53;;;23.85;;
52858;SDS011;38721;53.098;6.596;2023-05-07T01:30:00;30.25;;;23.23;;
52858;SDS011;38721;53.098;6.596;2023-05-07T01:32:43;34.63;;;24.92;;
52858;SDS011;38721;53.098;6.596;2023-05-07T01:35:29;34.38;;;25.33;;
52858;SDS011;38721;53.098;6.596;2023-05-07T01:37:57;33.67;;;24.73;;
52858;SDS011;38721;53.098;6.596;2023-05-07T01:40:24;33.17;;;24.52;;
52858;SDS011;38721;53.098;6.596;2023-05-07T01:42:50;32.88;;;25.25;;
52858;SDS011;38721;53.098;6.596;2023-05-07T01:45:20;32.70;;;25.25;;
52858;SDS011;38721;53.098;6.596;2023-05-07T01:47:45;38.22;;;27.05;;
52858;SDS011;38721;53.098;6.596;2023-05-07T01:50:15;35.17;;;25.70;;
52858;SDS011;38721;53.098;6.596;2023-05-07T01:52:43;34.47;;;26.08;;
52858;SDS011;38721;53.098;6.596;2023-05-07T01:55:09;34.85;;;26.23;;
52858;SDS011;38721;53.098;6.596;2023-05-07T01:57:37;39.45;;;28.00;;
52858;SDS011;38721;53.098;6.596;2023-05-07T02:00:03;35.00;;;26.33;;
52858;SDS011;38721;53.098;6.596;2023-05-07T02:02:33;35.63;;;26.65;;
52858;SDS011;38721;53.098;6.596;2023-05-07T02:04:59;38.65;;;27.67;;
52858;SDS011;38721;53.098;6.596;2023-05-07T02:07:26;36.20;;;27.38;;
52858;SDS011;38721;53.098;6.596;2023-05-07T02:09:51;37.15;;;28.00;;
52858;SDS011;38721;53.098;6.596;2023-05-07T02:12:17;38.80;;;27.42;;
52858;SDS011;38721;53.098;6.596;2023-05-07T02:14:43;38.55;;;27.23;;
52858;SDS011;38721;53.098;6.596;2023-05-07T02:17:08;37.85;;;27.08;;
52858;SDS011;38721;53.098;6.596;2023-05-07T02:19:34;38.50;;;28.35;;
52858;SDS011;38721;53.098;6.596;2023-05-07T02:22:00;37.90;;;28.33;;
52858;SDS011;38721;53.098;6.596;2023-05-07T02:24:25;36.03;;;28.67;;
52858;SDS011;38721;53.098;6.596;2023-05-07T02:26:51;40.83;;;28.48;;
52858;SDS011;38721;53.098;6.596;2023-05-07T02:29:17;42.80;;;29.25;;
52858;SDS011;38721;53.098;6.596;2023-05-07T02:31:42;40.15;;;28.73;;
52858;SDS011;38721;53.098;6.596;2023-05-07T02:34:08;40.33;;;29.17;;
52858;SDS011;38721;53.098;6.596;2023-05-07T02:36:33;42.63;;;28.90;;
52858;SDS011;38721;53.098;6.596;2023-05-07T02:39:02;44.63;;;30.67;;
52858;SDS011;38721;53.098;6.596;2023-05-07T02:41:28;44.25;;;29.88;;
52858;SDS011;38721;53.098;6.596;2023-05-07T02:43:56;46.58;;;29.65;;
52858;SDS011;38721;53.098;6.596;2023-05-07T02:46:25;41.08;;;29.05;;
52858;SDS011;38721;53.098;6.596;2023-05-07T02:48:50;40.00;;;29.58;;
52858;SDS011;38721;53.098;6.596;2023-05-07T02:51:19;41.78;;;28.70;;
52858;SDS011;38721;53.098;6.596;2023-05-07T02:53:45;45.25;;;29.77;;
52858;SDS011;38721;53.098;6.596;2023-05-07T02:56:14;45.65;;;30.02;;
52858;SDS011;38721;53.098;6.596;2023-05-07T02:58:40;43.85;;;30.35;;
52858;SDS011;38721;53.098;6.596;2023-05-07T03:01:07;50.45;;;32.42;;
52858;SDS011;38721;53.098;6.596;2023-05-07T03:03:36;49.67;;;32.15;;
52858;SDS011;38721;53.098;6.596;2023-05-07T03:06:02;46.42;;;29.65;;
52858;SDS011;38721;53.098;6.596;2023-05-07T03:08:28;43.20;;;29.92;;
52858;SDS011;38721;53.098;6.596;2023-05-07T03:10:53;45.08;;;30.67;;
52858;SDS011;38721;53.098;6.596;2023-05-07T03:13:19;44.72;;;30.80;;
52858;SDS011;38721;53.098;6.596;2023-05-07T03:15:45;47.28;;;29.00;;
52858;SDS011;38721;53.098;6.596;2023-05-07T03:18:11;48.53;;;30.92;;
52858;SDS011;38721;53.098;6.596;2023-05-07T03:20:36;49.80;;;31.35;;
52858;SDS011;38721;53.098;6.596;2023-05-07T03:23:02;42.85;;;28.70;;
52858;SDS011;38721;53.098;6.596;2023-05-07T03:25:28;55.92;;;34.08;;
52858;SDS011;38721;53.098;6.596;2023-05-07T03:27:55;55.08;;;33.17;;
52858;SDS011;38721;53.098;6.596;2023-05-07T03:30:21;51.20;;;31.85;;
52858;SDS011;38721;53.098;6.596;2023-05-07T03:32:47;50.92;;;32.28;;
52858;SDS011;38721;53.098;6.596;2023-05-07T03:35:13;48.72;;;32.15;;
52858;SDS011;38721;53.098;6.596;2023-05-07T03:37:39;51.80;;;32.85;;
52858;SDS011;38721;53.098;6.596;2023-05-07T03:40:08;50.28;;;32.47;;
52858;SDS011;38721;53.098;6.596;2023-05-07T03:42:35;52.65;;;32.85;;
52858;SDS011;38721;53.098;6.596;2023-05-07T03:45:03;49.63;;;31.25;;
52858;SDS011;38721;53.098;6.596;2023-05-07T03:47:29;47.50;;;31.67;;
52858;SDS011;38721;53.098;6.596;2023-05-07T03:49:55;48.88;;;32.28;;
52858;SDS011;38721;53.098;6.596;2023-05-07T03:52:24;49.78;;;33.05;;
52858;SDS011;38721;53.098;6.596;2023-05-07T03:54:52;48.03;;;32.05;;
52858;SDS011;38721;53.098;6.596;2023-05-07T03:57:19;47.63;;;32.28;;
52858;SDS011;38721;53.098;6.596;2023-05-07T03:59:44;44.63;;;29.83;;
52858;SDS011;38721;53.098;6.596;2023-05-07T04:02:10;46.33;;;29.98;;
52858;SDS011;38721;53.098;6.596;2023-05-07T04:04:39;48.08;;;31.85;;
52858;SDS011;38721;53.098;6.596;2023-05-07T04:07:05;49.67;;;31.83;;
52858;SDS011;38721;53.098;6.596;2023-05-07T04:09:30;50.38;;;31.92;;
52858;SDS011;38721;53.098;6.596;2023-05-07T04:11:56;46.67;;;30.85;;
52858;SDS011;38721;53.098;6.596;2023-05-07T04:14:21;44.55;;;29.95;;
52858;SDS011;38721;53.098;6.596;2023-05-07T04:16:47;47.40;;;29.67;;
52858;SDS011;38721;53.098;6.596;2023-05-07T04:19:13;47.17;;;30.55;;
52858;SDS011;38721;53.098;6.596;2023-05-07T04:21:38;45.08;;;30.35;;
52858;SDS011;38721;53.098;6.596;2023-05-07T04:24:05;42.38;;;29.33;;
52858;SDS011;38721;53.098;6.596;2023-05-07T04:26:31;48.33;;;30.45;;
52858;SDS011;38721;53.098;6.596;2023-05-07T04:28:57;44.20;;;29.83;;
52858;SDS011;38721;53.098;6.596;2023-05-07T04:31:24;44.80;;;30.42;;
52858;SDS011;38721;53.098;6.596;2023-05-07T04:33:50;41.67;;;29.58;;
52858;SDS011;38721;53.098;6.596;2023-05-07T04:36:16;45.72;;;29.70;;
52858;SDS011;38721;53.098;6.596;2023-05-07T04:38:42;40.85;;;28.35;;
52858;SDS011;38721;53.098;6.596;2023-05-07T04:41:08;42.15;;;29.23;;
52858;SDS011;38721;53.098;6.596;2023-05-07T04:43:34;41.83;;;29.15;;
52858;SDS011;38721;53.098;6.596;2023-05-07T04:46:00;43.53;;;28.40;;
52858;SDS011;38721;53.098;6.596;2023-05-07T04:48:26;40.75;;;28.23;;
52858;SDS011;38721;53.098;6.596;2023-05-07T04:50:52;38.28;;;28.27;;
52858;SDS011;38721;53.098;6.596;2023-05-07T04:53:18;40.47;;;27.70;;
52858;SDS011;38721;53.098;6.596;2023-05-07T04:55:45;40.47;;;27.45;;
52858;SDS011;38721;53.098;6.596;2023-05-07T04:58:11;41.22;;;29.13;;
52858;SDS011;38721;53.098;6.596;2023-05-07T05:00:38;40.17;;;28.33;;
52858;SDS011;38721;53.098;6.596;2023-05-07T05:03:04;42.05;;;28.65;;
52858;SDS011;38721;53.098;6.596;2023-05-07T05:05:31;38.83;;;28.13;;
52858;SDS011;38721;53.098;6.596;2023-05-07T05:07:57;41.53;;;27.92;;
52858;SDS011;38721;53.098;6.596;2023-05-07T05:10:23;41.95;;;28.15;;
52858;SDS011;38721;53.098;6.596;2023-05-07T05:12:51;38.28;;;26.80;;
52858;SDS011;38721;53.098;6.596;2023-05-07T05:15:20;37.22;;;26.15;;
52858;SDS011;38721;53.098;6.596;2023-05-07T05:17:45;37.33;;;26.92;;
52858;SDS011;38721;53.098;6.596;2023-05-07T05:20:11;40.40;;;27.05;;
52858;SDS011;38721;53.098;6.596;2023-05-07T05:22:37;37.47;;;26.85;;
52858;SDS011;38721;53.098;6.596;2023-05-07T05:25:03;39.42;;;27.88;;
52858;SDS011;38721;53.098;6.596;2023-05-07T05:27:29;36.40;;;25.88;;
52858;SDS011;38721;53.098;6.596;2023-05-07T05:29:55;33.75;;;25.67;;
52858;SDS011;38721;53.098;6.596;2023-05-07T05:32:20;36.28;;;25.83;;
52858;SDS011;38721;53.098;6.596;2023-05-07T05:34:46;36.15;;;25.98;;
52858;SDS011;38721;53.098;6.596;2023-05-07T05:37:12;34.25;;;25.02;;
52858;SDS011;38721;53.098;6.596;2023-05-07T05:39:38;32.03;;;24.45;;
52858;SDS011;38721;53.098;6.596;2023-05-07T05:42:03;33.97;;;24.02;;
52858;SDS011;38721;53.098;6.596;2023-05-07T05:44:29;32.70;;;25.30;;
52858;SDS011;38721;53.098;6.596;2023-05-07T05:46:55;35.33;;;24.80;;
52858;SDS011;38721;53.098;6.596;2023-05-07T05:49:22;33.92;;;25.00;;
52858;SDS011;38721;53.098;6.596;2023-05-07T05:51:51;30.73;;;23.70;;
52858;SDS011;38721;53.098;6.596;2023-05-07T05:54:17;33.00;;;25.38;;
52858;SDS011;38721;53.098;6.596;2023-05-07T05:56:42;38.65;;;25.55;;
52858;SDS011;38721;53.098;6.596;2023-05-07T05:59:08;32.38;;;24.10;;
52858;SDS011;38721;53.098;6.596;2023-05-07T06:01:34;33.08;;;24.77;;
52858;SDS011;38721;53.098;6.596;2023-05-07T06:04:00;32.70;;;24.38;;
52858;SDS011;38721;53.098;6.596;2023-05-07T06:06:26;33.28;;;24.30;;
52858;SDS011;38721;53.098;6.596;2023-05-07T06:08:55;31.55;;;23.42;;
52858;SDS011;38721;53.098;6.596;2023-05-07T06:11:21;30.58;;;23.98;;
52858;SDS011;38721;53.098;6.596;2023-05-07T06:13:46;29.60;;;23.80;;
52858;SDS011;38721;53.098;6.596;2023-05-07T06:16:12;33.55;;;25.27;;
52858;SDS011;38721;53.098;6.596;2023-05-07T06:18:38;32.40;;;24.33;;
52858;SDS011;38721;53.098;6.596;2023-05-07T06:21:04;34.00;;;24.58;;
52858;SDS011;38721;53.098;6.596;2023-05-07T06:23:30;33.22;;;23.23;;
52858;SDS011;38721;53.098;6.596;2023-05-07T06:25:55;30.73;;;23.58;;
52858;SDS011;38721;53.098;6.596;2023-05-07T06:28:27;29.25;;;23.52;;
52858;SDS011;38721;53.098;6.596;2023-05-07T06:30:55;31.77;;;23.65;;
52858;SDS011;38721;53.098;6.596;2023-05-07T06:33:35;31.92;;;24.25;;
52858;SDS011;38721;53.098;6.596;2023-05-07T06:36:01;29.92;;;22.98;;
52858;SDS011;38721;53.098;6.596;2023-05-07T06:38:26;33.55;;;24.67;;
52858;SDS011;38721;53.098;6.596;2023-05-07T06:40:52;29.45;;;22.77;;
52858;SDS011;38721;53.098;6.596;2023-05-07T06:43:20;28.23;;;22.13;;
52858;SDS011;38721;53.098;6.596;2023-05-07T06:45:45;31.15;;;22.75;;
52858;SDS011;38721;53.098;6.596;2023-05-07T06:48:11;29.20;;;22.77;;
52858;SDS011;38721;53.098;6.596;2023-05-07T06:50:37;29.02;;;23.02;;
52858;SDS011;38721;53.098;6.596;2023-05-07T06:53:02;28.20;;;22.15;;
52858;SDS011;38721;53.098;6.596;2023-05-07T06:55:34;28.52;;;22.63;;
52858;SDS011;38721;53.098;6.596;2023-05-07T06:58:02;28.75;;;22.55;;
52858;SDS011;38721;53.098;6.596;2023-05-07T07:00:27;27.13;;;22.52;;
52858;SDS011;38721;53.098;6.596;2023-05-07T07:02:54;30.30;;;22.80;;
52858;SDS011;38721;53.098;6.596;2023-05-07T07:05:20;29.33;;;23.17;;
52858;SDS011;38721;53.098;6.596;2023-05-07T07:07:45;29.52;;;22.95;;
52858;SDS011;38721;53.098;6.596;2023-05-07T07:10:18;29.48;;;23.10;;
52858;SDS011;38721;53.098;6.596;2023-05-07T07:12:45;29.55;;;22.85;;
52858;SDS011;38721;53.098;6.596;2023-05-07T07:15:10;27.48;;;21.35;;
52858;SDS011;38721;53.098;6.596;2023-05-07T07:17:36;27.50;;;21.75;;
52858;SDS011;38721;53.098;6.596;2023-05-07T07:20:02;29.70;;;22.35;;
52858;SDS011;38721;53.098;6.596;2023-05-07T07:22:28;28.17;;;21.08;;
52858;SDS011;38721;53.098;6.596;2023-05-07T07:24:54;31.75;;;22.90;;
52858;SDS011;38721;53.098;6.596;2023-05-07T07:27:20;32.72;;;23.08;;
52858;SDS011;38721;53.098;6.596;2023-05-07T07:29:45;30.17;;;23.35;;
52858;SDS011;38721;53.098;6.596;2023-05-07T07:32:11;29.33;;;22.05;;
52858;SDS011;38721;53.098;6.596;2023-05-07T07:34:37;28.45;;;21.40;;
52858;SDS011;38721;53.098;6.596;2023-05-07T07:37:02;28.35;;;21.90;;
52858;SDS011;38721;53.098;6.596;2023-05-07T07:39:33;29.05;;;22.52;;
52858;SDS011;38721;53.098;6.596;2023-05-07T07:41:59;30.27;;;22.67;;
52858;SDS011;38721;53.098;6.596;2023-05-07T07:44:26;28.55;;;22.33;;
52858;SDS011;38721;53.098;6.596;2023-05-07T07:46:53;30.95;;;22.75;;
52858;SDS011;38721;53.098;6.596;2023-05-07T07:49:18;28.02;;;21.73;;
52858;SDS011;38721;53.098;6.596;2023-05-07T07:51:44;31.67;;;22.10;;
52858;SDS011;38721;53.098;6.596;2023-05-07T07:54:10;29.95;;;22.05;;
52858;SDS011;38721;53.098;6.596;2023-05-07T07:56:36;29.95;;;22.75;;
52858;SDS011;38721;53.098;6.596;2023-05-07T07:59:03;27.75;;;21.80;;
52858;SDS011;38721;53.098;6.596;2023-05-07T08:01:29;29.58;;;22.30;;
52858;SDS011;38721;53.098;6.596;2023-05-07T08:03:55;33.38;;;23.48;;
52858;SDS011;38721;53.098;6.596;2023-05-07T08:06:23;30.00;;;21.88;;
52858;SDS011;38721;53.098;6.596;2023-05-07T08:08:50;28.33;;;21.27;;
52858;SDS011;38721;53.098;6.596;2023-05-07T08:11:19;28.98;;;21.50;;
52858;SDS011;38721;53.098;6.596;2023-05-07T08:13:46;27.67;;;21.73;;
52858;SDS011;38721;53.098;6.596;2023-05-07T08:16:12;29.13;;;21.65;;
52858;SDS011;38721;53.098;6.596;2023-05-07T08:18:38;26.80;;;21.33;;
52858;SDS011;38721;53.098;6.596;2023-05-07T08:21:04;26.42;;;20.55;;
52858;SDS011;38721;53.098;6.596;2023-05-07T08:23:30;26.25;;;20.33;;
52858;SDS011;38721;53.098;6.596;2023-05-07T08:25:55;27.52;;;21.10;;
52858;SDS011;38721;53.098;6.596;2023-05-07T08:28:21;29.08;;;21.70;;
52858;SDS011;38721;53.098;6.596;2023-05-07T08:30:47;26.60;;;20.17;;
52858;SDS011;38721;53.098;6.596;2023-05-07T08:33:12;27.92;;;20.88;;
52858;SDS011;38721;53.098;6.596;2023-05-07T08:35:38;27.48;;;20.70;;
52858;SDS011;38721;53.098;6.596;2023-05-07T08:38:04;25.40;;;20.80;;
52858;SDS011;38721;53.098;6.596;2023-05-07T08:40:29;25.20;;;20.25;;
52858;SDS011;38721;53.098;6.596;2023-05-07T08:43:03;24.30;;;18.67;;
52858;SDS011;38721;53.098;6.596;2023-05-07T08:45:33;27.08;;;20.42;;
52858;SDS011;38721;53.098;6.596;2023-05-07T08:48:01;27.27;;;20.77;;
52858;SDS011;38721;53.098;6.596;2023-05-07T08:50:29;24.40;;;19.92;;
52858;SDS011;38721;53.098;6.596;2023-05-07T08:52:55;26.42;;;20.80;;
52858;SDS011;38721;53.098;6.596;2023-05-07T08:55:22;26.42;;;20.35;;
52858;SDS011;38721;53.098;6.596;2023-05-07T08:57:48;24.42;;;20.23;;
52858;SDS011;38721;53.098;6.596;2023-05-07T09:00:15;23.77;;;19.17;;
52858;SDS011;38721;53.098;6.596;2023-05-07T09:02:41;26.88;;;19.77;;
52858;SDS011;38721;53.098;6.596;2023-05-07T09:05:06;23.83;;;19.02;;
52858;SDS011;38721;53.098;6.596;2023-05-07T09:07:32;23.50;;;19.65;;
52858;SDS011;38721;53.098;6.596;2023-05-07T09:10:00;24.30;;;19.38;;
52858;SDS011;38721;53.098;6.596;2023-05-07T09:12:27;23.25;;;19.13;;
52858;SDS011;38721;53.098;6.596;2023-05-07T09:14:53;22.77;;;18.25;;
52858;SDS011;38721;53.098;6.596;2023-05-07T09:17:18;24.42;;;19.05;;
52858;SDS011;38721;53.098;6.596;2023-05-07T09:19:45;21.35;;;17.55;;
52858;SDS011;38721;53.098;6.596;2023-05-07T09:22:11;20.92;;;18.02;;
52858;SDS011;38721;53.098;6.596;2023-05-07T09:24:37;23.83;;;17.83;;
52858;SDS011;38721;53.098;6.596;2023-05-07T09:27:03;21.77;;;17.85;;
52858;SDS011;38721;53.098;6.596;2023-05-07T09:29:31;22.10;;;17.60;;
52858;SDS011;38721;53.098;6.596;2023-05-07T09:32:04;22.17;;;18.38;;
52858;SDS011;38721;53.098;6.596;2023-05-07T09:34:31;21.40;;;17.75;;
52858;SDS011;38721;53.098;6.596;2023-05-07T09:37:01;20.15;;;17.00;;
52858;SDS011;38721;53.098;6.596;2023-05-07T09:39:40;19.92;;;17.10;;
52858;SDS011;38721;53.098;6.596;2023-05-07T09:42:13;23.13;;;18.45;;
52858;SDS011;38721;53.098;6.596;2023-05-07T09:44:45;23.20;;;17.80;;
52858;SDS011;38721;53.098;6.596;2023-05-07T09:47:12;20.02;;;17.02;;
52858;SDS011;38721;53.098;6.596;2023-05-07T09:49:43;23.60;;;17.30;;
52858;SDS011;38721;53.098;6.596;2023-05-07T09:52:13;18.92;;;16.55;;
52858;SDS011;38721;53.098;6.596;2023-05-07T09:54:39;22.48;;;18.20;;
52858;SDS011;38721;53.098;6.596;2023-05-07T09:57:11;21.13;;;17.63;;
52858;SDS011;38721;53.098;6.596;2023-05-07T09:59:37;20.83;;;17.88;;
52858;SDS011;38721;53.098;6.596;2023-05-07T10:02:03;21.48;;;17.23;;
52858;SDS011;38721;53.098;6.596;2023-05-07T10:04:30;20.38;;;17.65;;
52858;SDS011;38721;53.098;6.596;2023-05-07T10:06:59;18.55;;;16.25;;
52858;SDS011;38721;53.098;6.596;2023-05-07T10:09:28;21.17;;;17.50;;
52858;SDS011;38721;53.098;6.596;2023-05-07T10:11:55;18.73;;;16.33;;
52858;SDS011;38721;53.098;6.596;2023-05-07T10:14:25;20.67;;;17.35;;
52858;SDS011;38721;53.098;6.596;2023-05-07T10:16:55;21.45;;;16.55;;
52858;SDS011;38721;53.098;6.596;2023-05-07T10:19:22;20.90;;;17.50;;
52858;SDS011;38721;53.098;6.596;2023-05-07T10:21:51;20.30;;;16.77;;
52858;SDS011;38721;53.098;6.596;2023-05-07T10:24:31;20.27;;;17.02;;
52858;SDS011;38721;53.098;6.596;2023-05-07T10:26:59;20.40;;;16.48;;
52858;SDS011;38721;53.098;6.596;2023-05-07T10:30:00;18.52;;;16.45;;
52858;SDS011;38721;53.098;6.596;2023-05-07T10:32:47;19.42;;;16.13;;
52858;SDS011;38721;53.098;6.596;2023-05-07T10:35:20;18.95;;;15.93;;
52858;SDS011;38721;53.098;6.596;2023-05-07T10:37:49;19.17;;;16.33;;
52858;SDS011;38721;53.098;6.596;2023-05-07T10:40:15;17.35;;;15.52;;
52858;SDS011;38721;53.098;6.596;2023-05-07T10:45:21;19.17;;;15.63;;
52858;SDS011;38721;53.098;6.596;2023-05-07T10:48:06;17.42;;;15.52;;
52858;SDS011;38721;53.098;6.596;2023-05-07T10:50:33;17.80;;;15.50;;
52858;SDS011;38721;53.098;6.596;2023-05-07T10:55:52;18.02;;;15.80;;
52858;SDS011;38721;53.098;6.596;2023-05-07T10:58:43;17.35;;;15.45;;
52858;SDS011;38721;53.098;6.596;2023-05-07T11:01:09;16.08;;;14.38;;
52858;SDS011;38721;53.098;6.596;2023-05-07T11:03:37;18.38;;;16.35;;
52858;SDS011;38721;53.098;6.596;2023-05-07T11:06:40;19.98;;;15.18;;
52858;SDS011;38721;53.098;6.596;2023-05-07T11:09:06;16.52;;;14.82;;
52858;SDS011;38721;53.098;6.596;2023-05-07T11:11:47;17.67;;;15.30;;
52858;SDS011;38721;53.098;6.596;2023-05-07T11:17:16;15.93;;;14.25;;
52858;SDS011;38721;53.098;6.596;2023-05-07T11:19:49;17.15;;;15.27;;
52858;SDS011;38721;53.098;6.596;2023-05-07T11:25:04;16.20;;;14.48;;
52858;SDS011;38721;53.098;6.596;2023-05-07T11:27:31;16.63;;;14.88;;
52858;SDS011;38721;53.098;6.596;2023-05-07T11:29:58;16.02;;;14.32;;
52858;SDS011;38721;53.098;6.596;2023-05-07T11:32:26;17.33;;;15.52;;
52858;SDS011;38721;53.098;6.596;2023-05-07T11:34:57;17.23;;;14.40;;
52858;SDS011;38721;53.098;6.596;2023-05-07T11:37:24;16.13;;;14.40;;
52858;SDS011;38721;53.098;6.596;2023-05-07T11:40:02;16.30;;;13.98;;
52858;SDS011;38721;53.098;6.596;2023-05-07T11:42:35;16.90;;;14.82;;
52858;SDS011;38721;53.098;6.596;2023-05-07T11:45:03;18.02;;;15.55;;
52858;SDS011;38721;53.098;6.596;2023-05-07T11:47:33;16.65;;;14.95;;
52858;SDS011;38721;53.098;6.596;2023-05-07T11:50:06;16.33;;;14.57;;
52858;SDS011;38721;53.098;6.596;2023-05-07T11:52:33;15.85;;;14.23;;
52858;SDS011;38721;53.098;6.596;2023-05-07T11:54:59;16.35;;;14.65;;
52858;SDS011;38721;53.098;6.596;2023-05-07T11:57:26;16.50;;;14.73;;
52858;SDS011;38721;53.098;6.596;2023-05-07T11:59:56;16.00;;;14.40;;
52858;SDS011;38721;53.098;6.596;2023-05-07T12:02:23;17.73;;;14.75;;
52858;SDS011;38721;53.098;6.596;2023-05-07T12:04:50;17.08;;;15.23;;
52858;SDS011;38721;53.098;6.596;2023-05-07T12:07:16;15.85;;;14.13;;
52858;SDS011;38721;53.098;6.596;2023-05-07T12:09:43;16.23;;;14.52;;
52858;SDS011;38721;53.098;6.596;2023-05-07T12:12:10;16.30;;;14.20;;
52858;SDS011;38721;53.098;6.596;2023-05-07T12:14:39;16.50;;;13.93;;
52858;SDS011;38721;53.098;6.596;2023-05-07T12:17:06;16.90;;;14.27;;
52858;SDS011;38721;53.098;6.596;2023-05-07T12:19:36;14.95;;;13.48;;
52858;SDS011;38721;53.098;6.596;2023-05-07T12:22:03;16.15;;;14.52;;
52858;SDS011;38721;53.098;6.596;2023-05-07T12:24:42;17.38;;;13.80;;
52858;SDS011;38721;53.098;6.596;2023-05-07T12:27:08;15.88;;;14.25;;
52858;SDS011;38721;53.098;6.596;2023-05-07T12:29:34;16.60;;;13.55;;
52858;SDS011;38721;53.098;6.596;2023-05-07T12:32:00;14.98;;;13.40;;
52858;SDS011;38721;53.098;6.596;2023-05-07T12:34:26;14.98;;;13.50;;
52858;SDS011;38721;53.098;6.596;2023-05-07T12:36:55;15.70;;;14.10;;
52858;SDS011;38721;53.098;6.596;2023-05-07T12:39:22;15.30;;;13.70;;
52858;SDS011;38721;53.098;6.596;2023-05-07T12:41:55;15.32;;;13.82;;
52858;SDS011;38721;53.098;6.596;2023-05-07T12:44:25;16.83;;;13.77;;
52858;SDS011;38721;53.098;6.596;2023-05-07T12:46:55;15.10;;;13.68;;
52858;SDS011;38721;53.098;6.596;2023-05-07T12:49:20;14.70;;;13.20;;
52858;SDS011;38721;53.098;6.596;2023-05-07T12:51:47;14.70;;;13.25;;
52858;SDS011;38721;53.098;6.596;2023-05-07T12:54:14;15.32;;;13.77;;
52858;SDS011;38721;53.098;6.596;2023-05-07T12:59:33;14.95;;;13.35;;
52858;SDS011;38721;53.098;6.596;2023-05-07T13:01:59;14.95;;;13.45;;
52858;SDS011;38721;53.098;6.596;2023-05-07T13:04:25;15.00;;;13.50;;
52858;SDS011;38721;53.098;6.596;2023-05-07T13:06:51;15.10;;;13.23;;
52858;SDS011;38721;53.098;6.596;2023-05-07T13:09:16;14.23;;;12.73;;
52858;SDS011;38721;53.098;6.596;2023-05-07T13:11:42;13.98;;;12.60;;
52858;SDS011;38721;53.098;6.596;2023-05-07T13:14:08;14.18;;;12.88;;
52858;SDS011;38721;53.098;6.596;2023-05-07T13:16:33;14.25;;;12.52;;
52858;SDS011;38721;53.098;6.596;2023-05-07T13:18:59;15.38;;;13.82;;
52858;SDS011;38721;53.098;6.596;2023-05-07T13:21:24;14.68;;;13.05;;
52858;SDS011;38721;53.098;6.596;2023-05-07T13:23:51;14.00;;;12.70;;
52858;SDS011;38721;53.098;6.596;2023-05-07T13:26:17;14.65;;;13.15;;
52858;SDS011;38721;53.098;6.596;2023-05-07T13:28:43;13.65;;;12.25;;
52858;SDS011;38721;53.098;6.596;2023-05-07T13:31:09;13.82;;;12.52;;
52858;SDS011;38721;53.098;6.596;2023-05-07T13:33:35;14.57;;;13.18;;
52858;SDS011;38721;53.098;6.596;2023-05-07T13:36:01;14.20;;;12.70;;
52858;SDS011;38721;53.098;6.596;2023-05-07T13:38:29;14.95;;;13.43;;
52858;SDS011;38721;53.098;6.596;2023-05-07T13:40:55;14.75;;;12.52;;
52858;SDS011;38721;53.098;6.596;2023-05-07T13:43:21;13.98;;;12.57;;
52858;SDS011;38721;53.098;6.596;2023-05-07T13:45:47;14.18;;;12.70;;
52858;SDS011;38721;53.098;6.596;2023-05-07T13:48:13;13.73;;;12.43;;
52858;SDS011;38721;53.098;6.596;2023-05-07T13:50:38;13.38;;;12.07;;
52858;SDS011;38721;53.098;6.596;2023-05-07T13:53:04;13.48;;;12.07;;
52858;SDS011;38721;53.098;6.596;2023-05-07T13:55:30;13.02;;;11.75;;
52858;SDS011;38721;53.098;6.596;2023-05-07T13:57:59;13.25;;;12.05;;
52858;SDS011;38721;53.098;6.596;2023-05-07T14:00:26;14.00;;;12.55;;
52858;SDS011;38721;53.098;6.596;2023-05-07T14:02:53;12.35;;;11.25;;
52858;SDS011;38721;53.098;6.596;2023-05-07T14:05:20;15.50;;;12.73;;
52858;SDS011;38721;53.098;6.596;2023-05-07T14:07:48;13.48;;;12.10;;
52858;SDS011;38721;53.098;6.596;2023-05-07T14:10:17;13.13;;;11.80;;
52858;SDS011;38721;53.098;6.596;2023-05-07T14:12:44;13.07;;;11.88;;
52858;SDS011;38721;53.098;6.596;2023-05-07T14:15:10;12.90;;;11.70;;
52858;SDS011;38721;53.098;6.596;2023-05-07T14:17:36;12.40;;;11.10;;
52858;SDS011;38721;53.098;6.596;2023-05-07T14:20:02;11.35;;;10.25;;
52858;SDS011;38721;53.098;6.596;2023-05-07T14:22:32;12.32;;;11.13;;
52858;SDS011;38721;53.098;6.596;2023-05-07T14:24:57;13.15;;;11.95;;
52858;SDS011;38721;53.098;6.596;2023-05-07T14:27:23;11.05;;;10.10;;
52858;SDS011;38721;53.098;6.596;2023-05-07T14:29:49;11.82;;;10.68;;
52858;SDS011;38721;53.098;6.596;2023-05-07T14:32:19;11.65;;;10.65;;
52858;SDS011;38721;53.098;6.596;2023-05-07T14:34:45;11.57;;;10.48;;
52858;SDS011;38721;53.098;6.596;2023-05-07T14:37:11;11.60;;;10.50;;